createdAt,value
2022-11-01T00:02:04.036Z,98252.38
2022-11-01T00:05:05.606Z,98249.75
2022-11-01T00:08:06.984Z,98242.78
2022-11-01T00:11:09.700Z,98243.66
2022-11-01T00:14:14.528Z,98241.84
2022-11-01T00:17:15.881Z,98232.22
2022-11-01T00:20:17.458Z,98230.53
2022-11-01T00:23:18.790Z,98223.53
2022-11-01T00:26:20.852Z,98231.34
2022-11-01T00:29:22.222Z,98233.09
2022-11-01T00:32:23.628Z,98230.44
2022-11-01T00:35:24.956Z,98231.28
2022-11-01T00:38:26.355Z,98224.22
2022-11-01T00:41:27.770Z,98214.69
2022-11-01T00:44:29.160Z,98219.00
2022-11-01T00:47:30.556Z,98221.59
2022-11-01T00:50:31.901Z,98220.72
2022-11-01T00:53:33.295Z,98214.59
2022-11-01T00:56:34.674Z,98212.88
2022-11-01T00:59:40.719Z,98218.03
2022-11-01T01:02:42.664Z,98225.88
2022-11-01T01:05:44.120Z,98232.75
2022-11-01T01:08:45.529Z,98217.94
2022-11-01T01:11:46.896Z,98217.88
2022-11-01T01:14:48.279Z,98224.84
2022-11-01T01:17:49.660Z,98230.94
2022-11-01T01:20:51.021Z,98242.25
2022-11-01T01:23:54.677Z,98254.41
2022-11-01T01:26:56.067Z,98251.78
2022-11-01T01:29:57.424Z,98270.84
2022-11-01T01:32:58.891Z,98279.53
2022-11-01T01:36:00.818Z,98274.09
2022-11-01T01:39:02.156Z,98246.13
2022-11-01T01:42:05.988Z,98246.97
2022-11-01T01:45:20.425Z,98239.06
2022-11-01T01:48:22.818Z,98233.81
2022-11-01T01:51:24.714Z,98236.34
2022-11-01T01:54:26.057Z,98239.50
2022-11-01T01:57:27.398Z,98251.50
2022-11-01T02:00:28.710Z,98247.09
2022-11-01T02:03:31.113Z,98255.59
2022-11-01T02:06:32.441Z,98253.72
2022-11-01T02:09:33.754Z,98254.53
2022-11-01T02:12:35.489Z,98264.22
2022-11-01T02:15:46.396Z,98253.78
2022-11-01T02:19:08.002Z,98259.63
2022-11-01T02:22:12.146Z,98266.53
2022-11-01T02:25:32.484Z,98268.16
2022-11-01T02:28:55.423Z,98249.84
2022-11-01T02:32:12.423Z,98240.94
2022-11-01T02:35:19.749Z,98253.22
2022-11-01T02:38:24.073Z,98235.59
2022-11-01T02:41:26.522Z,98245.13
2022-11-01T02:44:28.923Z,98251.13
2022-11-01T02:47:30.848Z,98252.13
2022-11-01T02:50:33.757Z,98251.22
2022-11-01T02:53:35.172Z,98247.72
2022-11-01T02:56:37.227Z,98260.84
2022-11-01T02:59:42.508Z,98269.34
2022-11-01T03:02:44.119Z,98287.59
2022-11-01T03:05:53.139Z,98301.44
2022-11-01T03:08:55.247Z,98304.00
2022-11-01T03:12:01.125Z,98311.66
2022-11-01T03:15:03.664Z,98316.66
2022-11-01T03:18:06.232Z,98326.19
2022-11-01T03:21:17.133Z,98340.97
2022-11-01T03:24:24.655Z,98340.72
2022-11-01T03:27:32.701Z,98359.03
2022-11-01T03:30:34.050Z,98364.22
2022-11-01T03:33:36.307Z,98375.53
2022-11-01T03:36:42.974Z,98383.84
2022-11-01T03:39:45.545Z,98383.09
2022-11-01T03:42:47.654Z,98408.50
2022-11-01T03:45:48.979Z,98409.41
2022-11-01T03:48:50.373Z,98420.91
2022-11-01T03:51:51.764Z,98425.28
2022-11-01T03:54:53.129Z,98427.06
2022-11-01T03:57:55.419Z,98435.84
2022-11-01T04:00:56.782Z,98429.94
2022-11-01T04:03:58.159Z,98429.97
2022-11-01T04:06:59.525Z,98433.56
2022-11-01T04:10:00.870Z,98436.31
2022-11-01T04:13:02.443Z,98420.66
2022-11-01T04:16:22.739Z,98418.91
2022-11-01T04:19:42.883Z,98428.59
2022-11-01T04:22:44.347Z,98423.28
2022-11-01T04:25:46.913Z,98426.75
2022-11-01T04:28:57.750Z,98440.81
2022-11-01T04:31:59.350Z,98439.88
2022-11-01T04:35:00.742Z,98437.28
2022-11-01T04:38:02.327Z,98439.09
2022-11-01T04:41:03.773Z,98441.63
2022-11-01T04:44:05.428Z,98426.72
2022-11-01T04:47:06.786Z,98434.59
2022-11-01T04:50:08.287Z,98440.75
2022-11-01T04:53:09.873Z,98442.50
2022-11-01T04:56:11.730Z,98449.47
2022-11-01T04:59:13.275Z,98461.66
2022-11-01T05:02:14.705Z,98459.91
2022-11-01T05:05:16.292Z,98445.94
2022-11-01T05:08:17.651Z,98450.31
2022-11-01T05:11:21.772Z,98449.41
2022-11-01T05:14:23.156Z,98471.00
2022-11-01T05:17:24.566Z,98472.66
2022-11-01T05:20:25.913Z,98455.72
2022-11-01T05:23:27.257Z,98459.22
2022-11-01T05:26:28.695Z,98470.63
2022-11-01T05:29:33.544Z,98472.38
2022-11-01T05:32:38.081Z,98483.91
2022-11-01T05:35:39.551Z,98488.59
2022-11-01T05:38:40.923Z,98487.91
2022-11-01T05:41:42.299Z,98489.72
2022-11-01T05:44:43.612Z,98482.75
2022-11-01T05:47:45.003Z,98492.19
2022-11-01T05:50:47.033Z,98488.81
2022-11-01T05:53:49.236Z,98495.81
2022-11-01T05:56:50.632Z,98494.06
2022-11-01T05:59:51.985Z,98502.75
2022-11-01T06:02:53.380Z,98503.53
2022-11-01T06:05:54.739Z,98501.81
2022-11-01T06:08:57.318Z,98498.38
2022-11-01T06:11:58.681Z,98500.25
2022-11-01T06:15:00.064Z,98507.22
2022-11-01T06:18:01.726Z,98497.63
2022-11-01T06:21:03.491Z,98489.72
2022-11-01T06:24:04.979Z,98499.28
2022-11-01T06:27:09.929Z,98507.06
2022-11-01T06:30:13.912Z,98514.88
2022-11-01T06:33:15.243Z,98517.56
2022-11-01T06:36:16.602Z,98520.13
2022-11-01T06:39:18.606Z,98532.34
2022-11-01T06:42:19.990Z,98532.28
2022-11-01T06:45:21.344Z,98535.63
2022-11-01T06:48:22.728Z,98565.94
2022-11-01T06:51:24.075Z,98572.13
2022-11-01T06:54:25.788Z,98584.66
2022-11-01T06:57:27.158Z,98583.84
2022-11-01T07:00:28.837Z,98598.72
2022-11-01T07:03:30.299Z,98608.34
2022-11-01T07:06:31.744Z,98622.38
2022-11-01T07:09:34.432Z,98631.97
2022-11-01T07:12:35.943Z,98645.16
2022-11-01T07:15:37.336Z,98625.91
2022-11-01T07:18:38.696Z,98652.94
2022-11-01T07:21:40.116Z,98657.13
2022-11-01T07:24:41.506Z,98681.63
2022-11-01T07:27:42.848Z,98685.16
2022-11-01T07:30:46.956Z,98686.16
2022-11-01T07:33:48.328Z,98681.94
2022-11-01T07:36:51.979Z,98676.78
2022-11-01T07:39:53.313Z,98661.13
2022-11-01T07:42:56.016Z,98675.03
2022-11-01T07:46:07.365Z,98693.38
2022-11-01T07:49:08.864Z,98695.94
2022-11-01T07:52:10.199Z,98692.53
2022-11-01T07:55:11.537Z,98679.47
2022-11-01T07:58:13.060Z,98684.75
2022-11-01T08:01:14.701Z,98669.19
2022-11-01T08:04:16.331Z,98656.00
2022-11-01T08:07:17.919Z,98649.03
2022-11-01T08:10:19.270Z,98648.03
2022-11-01T08:13:23.869Z,98640.97
2022-11-01T08:16:25.188Z,98645.38
2022-11-01T08:19:26.539Z,98641.78
2022-11-01T08:22:27.959Z,98631.19
2022-11-01T08:25:29.379Z,98639.03
2022-11-01T08:28:30.792Z,98638.34
2022-11-01T08:31:32.128Z,98640.97
2022-11-01T08:34:33.586Z,98644.41
2022-11-01T08:37:34.931Z,98642.66
2022-11-01T08:40:36.287Z,98644.16
2022-11-01T08:43:40.522Z,98649.22
2022-11-01T08:46:43.713Z,98647.25
2022-11-01T08:49:45.714Z,98659.28
2022-11-01T08:52:47.098Z,98676.03
2022-11-01T08:58:54.970Z,98728.16
2022-11-01T09:01:56.419Z,98808.31
2022-11-01T09:04:57.931Z,98872.72
2022-11-01T09:07:59.546Z,98891.19
2022-11-01T09:11:01.012Z,98892.69
2022-11-01T09:14:02.445Z,98899.91
2022-11-01T09:17:03.782Z,98903.13
2022-11-01T09:20:05.383Z,98899.72
2022-11-01T09:23:06.840Z,98900.97
2022-11-01T09:26:08.775Z,98896.56
2022-11-01T09:29:10.144Z,98902.81
2022-11-01T09:32:12.054Z,98899.53
2022-11-01T09:35:13.387Z,98897.75
2022-11-01T09:38:14.715Z,98883.16
2022-11-01T09:41:15.998Z,98893.53
2022-11-01T09:44:18.390Z,98897.44
2022-11-01T09:47:21.004Z,98890.41
2022-11-01T09:50:24.084Z,98892.22
2022-11-01T09:53:25.780Z,98886.19
2022-11-01T09:56:30.306Z,98901.63
2022-11-01T09:59:41.281Z,98892.81
2022-11-01T10:02:50.163Z,98889.41
2022-11-01T10:05:54.803Z,98888.41
2022-11-01T10:09:25.669Z,98889.19
2022-11-01T10:12:32.873Z,98881.19
2022-11-01T10:15:43.339Z,98888.81
2022-11-01T10:18:56.926Z,98887.41
2022-11-01T10:22:01.240Z,98891.94
2022-11-01T10:25:04.653Z,98890.13
2022-11-01T10:28:18.396Z,98888.28
2022-11-01T10:31:21.715Z,98896.22
2022-11-01T10:34:24.080Z,98898.16
2022-11-01T10:37:34.983Z,98897.38
2022-11-01T10:40:41.268Z,98892.19
2022-11-01T10:43:44.079Z,98894.94
2022-11-01T10:46:46.275Z,98891.38
2022-11-01T10:50:26.256Z,98892.41
2022-11-01T10:53:31.850Z,98897.66
2022-11-01T10:56:41.817Z,98888.03
2022-11-01T10:59:44.562Z,98888.13
2022-11-01T11:02:50.744Z,98881.88
2022-11-01T11:05:52.122Z,98873.88
2022-11-01T11:08:54.150Z,98866.91
2022-11-01T11:11:56.936Z,98866.88
2022-11-01T11:14:59.875Z,98865.72
2022-11-01T11:18:01.215Z,98870.03
2022-11-01T11:21:04.707Z,98863.59
2022-11-01T11:24:06.420Z,98873.31
2022-11-01T11:27:11.783Z,98869.78
2022-11-01T11:30:14.783Z,98883.22
2022-11-01T11:33:17.024Z,98886.25
2022-11-01T11:36:24.645Z,98889.28
2022-11-01T11:39:26.591Z,98892.94
2022-11-01T11:42:30.254Z,98893.88
2022-11-01T11:45:31.609Z,98890.25
2022-11-01T11:48:32.967Z,98885.75
2022-11-01T11:51:35.538Z,98903.31
2022-11-01T11:54:38.963Z,98905.34
2022-11-01T11:57:40.294Z,98916.66
2022-11-01T12:00:41.940Z,98909.94
2022-11-01T12:03:46.371Z,98910.00
2022-11-01T12:06:48.303Z,98922.88
2022-11-01T12:09:49.673Z,98927.13
2022-11-01T12:12:54.268Z,98922.84
2022-11-01T12:16:15.959Z,98923.72
2022-11-01T12:19:27.535Z,98923.81
2022-11-01T12:22:29.704Z,98922.06
2022-11-01T12:25:31.023Z,98920.72
2022-11-01T12:28:45.713Z,98924.84
2022-11-01T12:31:48.194Z,98925.94
2022-11-01T12:34:49.932Z,98920.91
2022-11-01T12:38:09.728Z,98912.47
2022-11-01T12:41:31.115Z,98915.19
2022-11-01T12:44:39.274Z,98914.31
2022-11-01T12:47:41.862Z,98916.19
2022-11-01T12:50:47.883Z,98918.00
2022-11-01T12:53:54.626Z,98920.72
2022-11-01T12:56:56.752Z,98912.94
2022-11-01T12:59:58.107Z,98911.13
2022-11-01T13:03:18.477Z,98917.09
2022-11-01T13:06:35.055Z,98911.66
2022-11-01T13:09:39.332Z,98916.78
2022-11-01T13:12:47.111Z,98917.41
2022-11-01T13:16:09.311Z,98920.94
2022-11-01T13:19:12.997Z,98908.16
2022-11-01T13:22:17.349Z,98908.28
2022-11-01T13:25:42.004Z,98906.59
2022-11-01T13:28:48.601Z,98906.53
2022-11-01T13:32:00.902Z,98908.13
2022-11-01T13:35:21.108Z,98916.78
2022-11-01T13:38:41.986Z,98915.00
2022-11-01T13:41:45.900Z,98916.84
2022-11-01T13:45:00.046Z,98910.63
2022-11-01T13:48:10.474Z,98907.91
2022-11-01T13:51:11.775Z,98919.13
2022-11-01T13:54:13.068Z,98925.22
2022-11-01T13:57:15.088Z,98929.31
2022-11-01T14:00:35.225Z,98930.16
2022-11-01T14:03:36.900Z,98925.78
2022-11-01T14:06:38.749Z,98922.72
2022-11-01T14:09:43.992Z,98920.88
2022-11-01T14:12:57.305Z,98914.97
2022-11-01T14:15:59.743Z,98909.75
2022-11-01T14:19:03.948Z,98920.47
2022-11-01T14:22:11.470Z,98907.28
2022-11-01T14:25:12.821Z,98919.63
2022-11-01T14:28:17.252Z,98914.38
2022-11-01T14:31:19.111Z,98914.16
2022-11-01T14:34:24.864Z,98917.72
2022-11-01T14:37:26.259Z,98917.22
2022-11-01T14:40:34.968Z,98918.16
2022-11-01T14:43:43.614Z,98913.94
2022-11-01T14:46:46.726Z,98917.31
2022-11-01T14:49:48.951Z,98916.78
2022-11-01T14:52:58.683Z,98910.41
2022-11-01T14:56:06.266Z,98904.63
2022-11-01T14:59:11.664Z,98899.34
2022-11-01T15:02:13.177Z,98893.38
2022-11-01T15:05:15.891Z,98891.72
2022-11-01T15:08:29.075Z,98883.00
2022-11-01T15:11:30.598Z,98875.16
2022-11-01T15:14:35.754Z,98870.94
2022-11-01T15:17:37.136Z,98871.09
2022-11-01T15:20:38.937Z,98868.59
2022-11-01T15:23:40.409Z,98854.63
2022-11-01T15:26:41.755Z,98848.56
2022-11-01T15:29:43.191Z,98840.69
2022-11-01T15:32:44.526Z,98853.84
2022-11-01T15:35:55.519Z,98846.97
2022-11-01T15:38:57.758Z,98839.97
2022-11-01T15:41:59.131Z,98840.97
2022-11-01T15:45:17.912Z,98845.44
2022-11-01T15:48:20.470Z,98834.13
2022-11-01T15:51:22.983Z,98842.09
2022-11-01T15:54:53.538Z,98834.28
2022-11-01T15:58:01.222Z,98835.25
2022-11-01T16:01:03.783Z,98834.41
2022-11-01T16:04:06.525Z,98823.97
2022-11-01T16:07:08.163Z,98818.81
2022-11-01T16:10:22.953Z,98820.56
2022-11-01T16:13:24.745Z,98821.53
2022-11-01T16:16:26.120Z,98828.56
2022-11-01T16:19:42.519Z,98816.41
2022-11-01T16:22:45.961Z,98823.38
2022-11-01T16:25:48.260Z,98810.34
2022-11-01T16:28:50.578Z,98815.63
2022-11-01T16:32:09.265Z,98819.16
2022-11-01T16:35:28.877Z,98813.13
2022-11-01T16:38:33.273Z,98807.91
2022-11-01T16:41:38.044Z,98817.53
2022-11-01T16:44:42.535Z,98819.28
2022-11-01T16:47:43.937Z,98816.72
2022-11-01T16:50:45.296Z,98809.75
2022-11-01T16:53:46.826Z,98816.75
2022-11-01T16:56:49.049Z,98819.41
2022-11-01T16:59:51.066Z,98831.63
2022-11-01T17:02:52.432Z,98833.38
2022-11-01T17:05:56.208Z,98826.44
2022-11-01T17:08:57.807Z,98828.19
2022-11-01T17:11:59.152Z,98827.38
2022-11-01T17:15:00.484Z,98839.59
2022-11-01T17:18:03.359Z,98842.16
2022-11-01T17:21:05.696Z,98840.44
2022-11-01T17:24:07.065Z,98839.56
2022-11-01T17:27:08.880Z,98837.84
2022-11-01T17:30:10.437Z,98843.06
2022-11-01T17:33:11.946Z,98837.00
2022-11-01T17:36:16.376Z,98849.16
2022-11-01T17:39:17.794Z,98848.31
2022-11-01T17:42:19.190Z,98849.16
2022-11-01T17:45:20.609Z,98850.06
2022-11-01T17:48:22.075Z,98853.53
2022-11-01T17:51:23.419Z,98851.78
2022-11-01T17:57:31.040Z,98860.50
2022-11-01T18:00:32.423Z,98866.56
2022-11-01T18:03:33.849Z,98863.94
2022-11-01T18:06:35.262Z,98870.03
2022-11-01T18:09:37.322Z,98860.44
2022-11-01T18:12:39.616Z,98856.09
2022-11-01T18:15:44.069Z,98852.59
2022-11-01T18:18:54.843Z,98859.53
2022-11-01T18:21:59.364Z,98869.94
2022-11-01T18:25:10.632Z,98863.84
2022-11-01T18:28:15.865Z,98869.91
2022-11-01T18:31:24.344Z,98867.28
2022-11-01T18:34:38.173Z,98859.44
2022-11-01T18:37:44.647Z,98860.28
2022-11-01T18:40:46.194Z,98864.59
2022-11-01T18:43:47.527Z,98857.59
2022-11-01T18:46:56.940Z,98860.16
2022-11-01T18:49:59.185Z,98857.50
2022-11-01T18:53:20.795Z,98862.72
2022-11-01T18:56:22.791Z,98858.31
2022-11-01T18:59:29.246Z,98852.13
2022-11-01T19:02:31.524Z,98856.41
2022-11-01T19:05:33.063Z,98856.34
2022-11-01T19:08:35.118Z,98854.56
2022-11-01T19:11:36.487Z,98853.69
2022-11-01T19:14:37.835Z,98849.38
2022-11-01T19:17:40.456Z,98853.63
2022-11-01T19:20:52.926Z,98849.22
2022-11-01T19:23:54.722Z,98842.25
2022-11-01T19:26:56.297Z,98853.47
2022-11-01T19:29:58.141Z,98844.78
2022-11-01T19:33:17.286Z,98843.94
2022-11-01T19:36:18.912Z,98840.41
2022-11-01T19:39:20.256Z,98841.28
2022-11-01T19:42:28.664Z,98848.22
2022-11-01T19:45:30.995Z,98852.53
2022-11-01T19:48:32.351Z,98851.69
2022-11-01T19:51:33.674Z,98849.03
2022-11-01T19:54:35.525Z,98842.94
2022-11-01T19:57:39.609Z,98852.41
2022-11-01T20:00:43.682Z,98849.81
2022-11-01T20:03:52.322Z,98853.16
2022-11-01T20:06:57.843Z,98867.81
2022-11-01T20:09:59.232Z,98853.13
2022-11-01T20:13:01.395Z,98852.38
2022-11-01T20:16:03.008Z,98851.38
2022-11-01T20:19:04.379Z,98848.78
2022-11-01T20:22:05.752Z,98855.59
2022-11-01T20:25:07.234Z,98859.00
2022-11-01T20:28:08.867Z,98852.97
2022-11-01T20:31:10.256Z,98858.22
2022-11-01T20:34:11.627Z,98855.50
2022-11-01T20:37:29.121Z,98858.19
2022-11-01T20:40:30.683Z,98873.75
2022-11-01T20:43:32.103Z,98863.25
2022-11-01T20:46:33.458Z,98883.13
2022-11-01T20:49:35.795Z,98880.53
2022-11-01T20:52:40.501Z,98894.31
2022-11-01T20:55:42.744Z,98889.00
2022-11-01T20:58:44.128Z,98893.22
2022-11-01T21:01:45.703Z,98905.25
2022-11-01T21:04:47.546Z,98909.59
2022-11-01T21:07:49.024Z,98906.91
2022-11-01T21:10:57.507Z,98914.75
2022-11-01T21:13:59.195Z,98916.38
2022-11-01T21:17:01.563Z,98915.53
2022-11-01T21:20:02.895Z,98917.13
2022-11-01T21:23:22.953Z,98920.56
2022-11-01T21:26:33.794Z,98913.53
2022-11-01T21:29:35.243Z,98922.28
2022-11-01T21:32:39.831Z,98918.66
2022-11-01T21:35:45.403Z,98924.84
2022-11-01T21:38:47.623Z,98918.72
2022-11-01T21:41:49.744Z,98931.78
2022-11-01T21:44:52.014Z,98913.53
2022-11-01T21:47:53.430Z,98928.31
2022-11-01T21:50:54.758Z,98929.09
2022-11-01T21:54:00.092Z,98942.78
2022-11-01T21:57:05.503Z,98937.50
2022-11-01T22:00:07.063Z,98941.88
2022-11-01T22:03:08.392Z,98943.56
2022-11-01T22:06:09.952Z,98943.47
2022-11-01T22:09:11.422Z,98941.84
2022-11-01T22:12:12.782Z,98946.16
2022-11-01T22:15:14.184Z,98950.19
2022-11-01T22:18:16.666Z,98943.06
2022-11-01T22:21:20.174Z,98945.75
2022-11-01T22:24:21.563Z,98952.66
2022-11-01T22:27:22.931Z,98957.88
2022-11-01T22:30:24.294Z,98946.56
2022-11-01T22:33:26.682Z,98955.28
2022-11-01T22:36:31.544Z,98958.47
2022-11-01T22:39:34.628Z,98962.81
2022-11-01T22:42:35.956Z,98959.47
2022-11-01T22:45:37.758Z,98964.41
2022-11-01T22:48:39.132Z,98958.34
2022-11-01T22:51:40.832Z,98965.19
2022-11-01T22:54:42.375Z,98965.31
2022-11-01T22:57:47.847Z,98966.97
2022-11-01T23:00:49.180Z,98967.63
2022-11-01T23:03:51.345Z,98961.47
2022-11-01T23:06:52.697Z,98969.19
2022-11-01T23:09:55.287Z,98982.13
2022-11-01T23:13:26.109Z,98972.47
2022-11-01T23:16:27.976Z,98977.66
2022-11-01T23:19:29.457Z,98980.16
2022-11-01T23:22:34.321Z,98981.94
2022-11-01T23:25:35.672Z,98981.03
2022-11-01T23:28:39.440Z,98986.91
2022-11-01T23:31:40.803Z,98992.19
2022-11-01T23:34:42.202Z,98982.00
2022-11-01T23:37:43.603Z,98976.75
2022-11-01T23:40:45.077Z,98980.25
2022-11-01T23:43:46.422Z,98984.53
2022-11-01T23:46:47.785Z,98973.38
2022-11-01T23:49:51.466Z,98982.69
2022-11-01T23:52:53.853Z,98978.28
2022-11-01T23:55:55.195Z,98973.25
2022-11-01T23:58:59.418Z,98974.84
